Terminal Aerodrome Forecast
Issued by NWS

Home | Current Version | Previous Version | Text Only | Print | Product List | Glossary Off
Versions: 1 2 3 4 5 6 7 8 9 10 11 12 13 14 15

000
FTUS43 KMPX 010942 AAA
TAFAXN
TAF AMD
KAXN 010942Z 0110/0206 VRB03KT P6SM SKC
      TEMPO 0110/0112 3/4SM BR VV002
     FM011400 22008KT P6SM SCT100
     FM020000 VRB04KT P6SM SCT080 PROB30 0200/0203 5SM TSRA
      OVC060CB=

USA.gov is the U.S. government's official web portal to all federal, state and local government web resources and services.